23°C Temp
11°C Dewpoint
% Humidity
Temperature
11 KM/H
7 MPH
6 KTS
90°
Due East

Wind Speed
Despejado
Pressure 1016.92 (hPa) - 30.03 (in)
Visibility 6.2 (mi) - 10.0 (km)

Current Conditions
LEAL
Location 70(km)
Metar :LEAL 281100Z 09006KT 050V140 CAVOK 23/11 Q1017 NOSIG
Mon 28th September 13:00 pm

Airport
  Metar Aviation API Data Provided by https://www.checkwx.com/ PHP scripts by weather34.com ©2020